Time;durP1;ratioP1;P1;durP2;ratioP2;P2;SDS_P1;SDS_P2;PMS_P1;PMS_P2;Temp;Humidity;BMP_temperature;BMP_pressure;BME280_temperature;BME280_humidity;BME280_pressure;Samples;Min_cycle;Max_cycle;Signal;HPM_P1;HPM_P2
2023/04/10 00:00:08;;;;;;;5.30;3.40;;;;;;;12.66;65.80;101591.53;5067405;28;20032;-87
2023/04/10 00:02:36;;;;;;;4.18;3.28;;;;;;;13.05;65.64;101662.84;5052056;28;20490;-87
2023/04/10 00:05:01;;;;;;;3.53;3.10;;;;;;;13.09;65.59;101669.16;5051534;28;20101;-88
2023/04/10 00:07:27;;;;;;;3.88;3.03;;;;;;;13.15;65.25;101669.53;5069047;28;20479;-87
2023/04/10 00:09:53;;;;;;;5.45;3.38;;;;;;;12.95;65.24;101640.44;5043958;28;20032;-88
2023/04/10 00:12:19;;;;;;;5.38;3.17;;;;;;;12.81;65.23;101629.13;5068326;28;20043;-87
2023/04/10 00:14:45;;;;;;;4.53;3.25;;;;;;;13.02;67.00;101660.03;5068608;28;20509;-87
2023/04/10 00:17:10;;;;;;;4.10;3.20;;;;;;;12.65;68.66;101631.66;5067988;28;20103;-87
2023/04/10 00:19:37;;;;;;;4.28;3.50;;;;;;;12.50;70.16;101641.22;5054190;28;20482;-87
2023/04/10 00:22:03;;;;;;;3.92;3.53;;;;;;;12.50;71.04;101647.38;5073224;28;20028;-87
2023/04/10 00:24:29;;;;;;;4.57;3.50;;;;;;;12.73;68.78;101630.38;5042980;28;20501;-87
2023/04/10 00:26:56;;;;;;;3.72;2.97;;;;;;;12.68;67.22;101583.75;5054196;28;20776;-87
2023/04/10 00:29:22;;;;;;;3.88;3.20;;;;;;;12.67;66.96;101600.31;5054998;28;20040;-87
2023/04/10 00:31:48;;;;;;;4.18;3.40;;;;;;;12.37;66.97;101558.38;5055140;28;20052;-87
2023/04/10 00:34:15;;;;;;;3.50;2.95;;;;;;;13.07;66.02;101624.50;5055367;28;20040;-87
2023/04/10 00:36:41;;;;;;;3.53;3.00;;;;;;;12.51;65.46;101536.53;5044950;28;20024;-87
2023/04/10 00:39:08;;;;;;;3.90;3.17;;;;;;;12.72;65.61;101572.63;5054294;28;20036;-87
2023/04/10 00:41:33;;;;;;;3.80;3.15;;;;;;;12.86;65.56;101587.44;5053429;28;20040;-87
2023/04/10 00:43:59;;;;;;;4.70;3.13;;;;;;;12.80;64.90;101555.63;5069851;28;20049;-87
2023/04/10 00:46:27;;;;;;;5.38;3.50;;;;;;;13.20;64.97;101627.00;5056764;28;20058;-88
2023/04/10 00:48:53;;;;;;;4.45;3.38;;;;;;;12.81;64.77;101554.84;5053594;28;20024;-88
2023/04/10 00:51:19;;;;;;;3.85;3.10;;;;;;;12.78;64.51;101536.31;5059654;28;20378;-88
2023/04/10 00:53:53;;;;;;;5.05;3.30;;;;;;;13.17;64.65;101615.44;5055325;28;20040;-87
2023/04/10 00:56:20;;;;;;;3.42;3.10;;;;;;;12.96;64.62;101597.66;5040343;28;20029;-87
2023/04/10 00:58:49;;;;;;;4.10;3.33;;;;;;;13.00;64.33;101576.03;5070406;28;20550;-87
2023/04/10 01:01:14;;;;;;;4.63;3.25;;;;;;;12.83;64.14;101535.75;5038360;28;20037;-87
2023/04/10 01:03:41;;;;;;;4.72;3.30;;;;;;;12.74;65.14;101565.75;5072963;28;20552;-87
2023/04/10 01:06:11;;;;;;;4.35;3.20;;;;;;;12.98;66.95;101603.91;5054900;28;20071;-87
2023/04/10 01:08:43;;;;;;;4.13;3.55;;;;;;;12.68;68.72;101604.72;5034123;28;20032;-87
2023/04/10 01:11:32;;;;;;;4.22;3.25;;;;;;;12.50;70.21;101588.81;5069561;28;20043;-87
2023/04/10 01:14:06;;;;;;;4.88;3.50;;;;;;;12.73;68.38;101598.03;5051969;28;20028;-88
2023/04/10 01:16:48;;;;;;;5.00;3.30;;;;;;;12.53;67.71;101552.31;5040922;28;20111;-87
2023/04/10 01:19:37;;;;;;;5.60;3.47;;;;;;;12.83;66.85;101592.53;5055464;28;20415;-87
2023/04/10 01:22:09;;;;;;;3.90;3.13;;;;;;;12.87;66.15;101585.72;5071343;28;20711;-87
2023/04/10 01:24:50;;;;;;;4.70;3.42;;;;;;;12.88;65.65;101592.78;5056395;28;20036;-87
2023/04/10 01:27:44;;;;;;;4.57;3.65;;;;;;;12.95;65.52;101581.84;5072176;28;20029;-87
2023/04/10 01:30:14;;;;;;;4.65;3.50;;;;;;;12.91;64.96;101553.63;5062481;28;20093;-89
2023/04/10 01:32:40;;;;;;;4.38;3.33;;;;;;;12.99;65.36;101571.59;5071494;28;20060;-87
2023/04/10 01:35:07;;;;;;;4.82;3.50;;;;;;;12.99;64.66;101578.56;5033411;28;20064;-88
2023/04/10 01:37:37;;;;;;;3.65;3.15;;;;;;;12.91;64.47;101553.63;5053860;28;20032;-87
2023/04/10 01:40:07;;;;;;;4.50;3.65;;;;;;;12.88;64.43;101537.75;5053212;28;20044;-86
2023/04/10 01:42:43;;;;;;;4.65;3.50;;;;;;;12.80;64.77;101553.91;5058756;28;20043;-88
2023/04/10 01:45:13;;;;;;;4.10;3.45;;;;;;;12.99;64.09;101527.03;5089288;28;20028;-87
2023/04/10 01:47:39;;;;;;;3.85;3.22;;;;;;;13.02;64.40;101561.31;5073980;28;20036;-87
2023/04/10 01:50:05;;;;;;;4.68;3.58;;;;;;;12.97;64.27;101561.84;5073680;28;20069;-87
2023/04/10 01:52:31;;;;;;;5.07;3.83;;;;;;;12.67;64.58;101519.97;5072499;28;20413;-87
2023/04/10 01:54:57;;;;;;;4.03;3.47;;;;;;;12.75;66.00;101559.72;5076471;28;20024;-88
2023/04/10 01:57:23;;;;;;;4.93;3.75;;;;;;;12.62;68.05;101563.34;5073688;28;20039;-88
2023/04/10 01:59:50;;;;;;;6.20;3.50;;;;;;;12.51;69.07;101554.88;5074763;28;20024;-88
2023/04/10 02:02:15;;;;;;;8.75;3.78;;;;;;;12.33;69.21;101517.09;5071006;28;20493;-87
2023/04/10 02:04:41;;;;;;;10.23;4.15;;;;;;;12.46;67.28;101503.00;5092337;28;20038;-87
2023/04/10 02:07:19;;;;;;;4.45;3.72;;;;;;;12.63;66.25;101528.47;5091380;28;20047;-88
2023/04/10 02:09:45;;;;;;;4.70;3.58;;;;;;;12.90;65.69;101557.97;5066895;28;20107;-87
2023/04/10 02:12:17;;;;;;;6.05;3.80;;;;;;;12.90;65.07;101552.75;5091724;28;20058;-87
2023/04/10 02:14:45;;;;;;;3.78;3.00;;;;;;;12.53;65.24;101505.16;5073144;28;20032;-88
2023/04/10 02:17:14;;;;;;;3.92;3.17;;;;;;;12.80;65.00;101540.81;5072703;28;20458;-87
2023/04/10 02:19:40;;;;;;;4.80;3.50;;;;;;;12.85;64.76;101546.34;5054074;28;20111;-87
2023/04/10 02:22:06;;;;;;;4.32;3.60;;;;;;;12.61;64.38;101493.41;5090082;28;20056;-87
2023/04/10 02:24:32;;;;;;;4.03;3.40;;;;;;;12.71;64.64;101531.53;5077688;28;20028;-88
2023/04/10 02:26:58;;;;;;;4.05;3.20;;;;;;;12.78;64.78;101517.94;5079401;28;20027;-86
2023/04/10 02:29:23;;;;;;;4.38;3.22;;;;;;;13.04;64.22;101549.19;5060803;28;20581;-87
2023/04/10 02:31:49;;;;;;;4.22;3.42;;;;;;;12.54;64.28;101492.16;5053824;28;20096;-90
2023/04/10 02:34:15;;;;;;;5.68;3.17;;;;;;;12.75;64.06;101508.22;5071816;28;20016;-89
2023/04/10 02:36:41;;;;;;;5.38;3.40;;;;;;;12.91;64.20;101514.31;5073990;28;20024;-90
2023/04/10 02:39:07;;;;;;;4.72;3.50;;;;;;;12.86;63.92;101527.16;5068652;28;20111;-88
2023/04/10 02:41:33;;;;;;;3.88;3.17;;;;;;;13.02;63.73;101531.56;5052738;28;20115;-89
2023/04/10 02:43:59;;;;;;;5.82;3.60;;;;;;;12.45;64.87;101469.78;5085602;28;20051;-88
2023/04/10 02:46:26;;;;;;;4.60;3.28;;;;;;;12.51;66.68;101496.31;5090379;28;20036;-89
2023/04/10 02:48:52;;;;;;;4.57;3.58;;;;;;;12.20;68.60;101484.06;5090799;28;20059;-85
2023/04/10 02:51:18;;;;;;;4.57;3.40;;;;;;;12.32;68.87;101489.09;5089438;28;20066;-89
2023/04/10 02:53:43;;;;;;;5.80;3.75;;;;;;;12.45;67.68;101504.72;5072101;28;20512;-88
2023/04/10 02:56:10;;;;;;;4.78;3.72;;;;;;;12.39;66.31;101465.97;5091593;28;20035;-88
2023/04/10 02:58:37;;;;;;;5.75;3.33;;;;;;;12.74;65.55;101505.50;5094769;28;20028;-88
2023/04/10 03:01:04;;;;;;;3.58;3.00;;;;;;;12.39;65.06;101455.50;5071576;28;20465;-88
2023/04/10 03:03:29;;;;;;;4.72;3.28;;;;;;;12.55;64.88;101461.59;5091303;28;20024;-87
2023/04/10 03:05:56;;;;;;;4.47;3.45;;;;;;;12.96;64.33;101508.50;5070185;28;20036;-88
2023/04/10 03:08:22;;;;;;;3.80;3.08;;;;;;;12.92;64.16;101500.41;5089708;28;20067;-88
2023/04/10 03:10:48;;;;;;;5.80;3.70;;;;;;;12.73;63.93;101451.28;5086884;28;20111;-89
2023/04/10 03:13:15;;;;;;;4.90;3.65;;;;;;;12.83;64.22;101488.56;5072491;28;20115;-89
2023/04/10 03:15:41;;;;;;;5.38;3.13;;;;;;;12.78;64.23;101503.16;5061758;28;20033;-89
2023/04/10 03:18:10;;;;;;;4.47;3.22;;;;;;;12.86;63.73;101486.94;5092129;28;20098;-89
2023/04/10 03:20:37;;;;;;;4.05;2.97;;;;;;;12.68;63.82;101472.00;5073441;28;20128;-88
2023/04/10 03:23:04;;;;;;;4.30;3.35;;;;;;;12.75;63.75;101463.66;5072084;28;20058;-89
2023/04/10 03:25:31;;;;;;;4.85;3.50;;;;;;;12.92;63.72;101498.69;5069318;28;20028;-89
2023/04/10 03:27:56;;;;;;;4.80;3.30;;;;;;;13.06;63.20;101495.91;5090261;28;20028;-88
2023/04/10 03:30:22;;;;;;;5.47;3.63;;;;;;;12.94;63.17;101493.53;5072260;28;20051;-89
2023/04/10 03:32:47;;;;;;;3.92;3.10;;;;;;;12.77;63.64;101508.31;5064660;28;20550;-89
2023/04/10 03:35:13;;;;;;;4.82;3.58;;;;;;;12.28;65.46;101437.38;5081517;28;20047;-88
2023/04/10 03:37:41;;;;;;;5.38;3.47;;;;;;;12.48;67.45;101507.50;5094089;28;20038;-89
2023/04/10 03:40:08;;;;;;;4.68;3.60;;;;;;;12.13;68.54;101485.41;5056652;28;20549;-88
2023/04/10 03:42:34;;;;;;;4.85;3.47;;;;;;;12.32;68.51;101510.97;5087320;28;20056;-88
2023/04/10 03:45:03;;;;;;;;;;;;;;;12.77;66.46;101527.53;5069585;28;20084;-89
2023/04/10 03:47:30;;;;;;;3.75;2.88;;;;;;;12.63;65.12;101487.44;5055440;28;19961;-89
2023/04/10 03:49:56;;;;;;;4.07;2.83;;;;;;;12.68;65.08;101511.31;5052889;28;20043;-89
2023/04/10 03:52:22;;;;;;;4.05;3.00;;;;;;;12.62;64.35;101477.78;5070099;28;20025;-88
2023/04/10 03:54:47;;;;;;;3.50;3.20;;;;;;;12.80;63.72;101496.25;5071291;28;20040;-89
2023/04/10 03:57:13;;;;;;;5.25;3.47;;;;;;;12.44;64.19;101453.13;5056403;28;20024;-88
2023/04/10 03:59:38;;;;;;;3.80;3.10;;;;;;;12.57;63.63;101446.88;5074267;28;20032;-88
2023/04/10 04:02:05;;;;;;;6.53;2.90;;;;;;;12.79;63.69;101490.94;5072598;28;20031;-87
2023/04/10 04:04:31;;;;;;;4.43;2.63;;;;;;;12.76;63.31;101486.44;5072494;28;20040;-88
2023/04/10 04:06:56;;;;;;;5.85;3.20;;;;;;;12.52;63.51;101448.34;5071711;28;20055;-88
2023/04/10 04:09:22;;;;;;;3.30;2.90;;;;;;;12.84;62.92;101477.25;5074341;28;20512;-87
2023/04/10 04:11:47;;;;;;;4.53;3.30;;;;;;;12.80;62.95;101487.50;5073855;28;20081;-88
2023/04/10 04:14:14;;;;;;;4.80;3.10;;;;;;;12.86;63.16;101500.06;5073788;28;20044;-88
2023/04/10 04:16:40;;;;;;;5.28;3.22;;;;;;;12.94;62.60;101507.53;5073810;28;20032;-88
2023/04/10 04:19:05;;;;;;;5.95;3.10;;;;;;;12.61;62.96;101457.66;5076425;28;20066;-88
2023/04/10 04:21:32;;;;;;;4.15;2.80;;;;;;;12.91;62.43;101480.22;5072000;28;20043;-89
2023/04/10 04:23:57;;;;;;;4.78;3.35;;;;;;;12.31;64.06;101455.88;5081913;28;20024;-89
2023/04/10 04:26:25;;;;;;;4.97;3.00;;;;;;;12.00;66.60;101449.75;5072153;28;20078;-89
2023/04/10 04:28:50;;;;;;;3.75;2.90;;;;;;;11.91;68.13;101456.16;5072945;28;20497;-89
2023/04/10 04:31:17;;;;;;;4.90;3.33;;;;;;;12.17;68.91;101507.44;5072997;28;20078;-90
2023/04/10 04:33:42;;;;;;;5.60;3.53;;;;;;;12.42;66.63;101481.88;5072303;28;20036;-88
2023/04/10 04:36:08;;;;;;;4.20;3.40;;;;;;;12.71;65.41;101527.19;5073954;28;20512;-88
2023/04/10 04:38:34;;;;;;;4.25;3.08;;;;;;;12.74;64.79;101513.34;5080029;28;20110;-87
2023/04/10 04:40:59;;;;;;;4.75;3.63;;;;;;;12.82;64.24;101512.97;5074631;28;20078;-88
2023/04/10 04:43:25;;;;;;;4.80;3.30;;;;;;;12.90;63.50;101513.41;5070433;28;20045;-87
2023/04/10 04:45:50;;;;;;;4.13;3.20;;;;;;;12.80;63.69;101511.97;5065997;28;20040;-87
2023/04/10 04:48:16;;;;;;;5.40;3.42;;;;;;;12.92;63.30;101513.50;5071932;28;20033;-87
2023/04/10 04:50:42;;;;;;;4.85;3.13;;;;;;;12.74;63.15;101500.25;5071672;28;20032;-86
2023/04/10 04:53:08;;;;;;;3.97;3.28;;;;;;;12.78;63.19;101497.91;5075290;28;20087;-86
2023/04/10 04:55:34;;;;;;;3.78;2.97;;;;;;;12.84;62.74;101503.47;5054333;28;20033;-88
2023/04/10 04:57:59;;;;;;;4.20;3.05;;;;;;;12.82;62.76;101501.59;5076582;28;20579;-88
2023/04/10 05:00:25;;;;;;;3.75;3.22;;;;;;;12.60;63.15;101484.66;5064955;28;20178;-87
2023/04/10 05:02:51;;;;;;;4.40;3.50;;;;;;;12.50;62.99;101456.13;5068544;28;20551;-87
2023/04/10 05:05:16;;;;;;;5.40;3.45;;;;;;;12.61;62.86;101469.81;5068433;28;20054;-87
2023/04/10 05:07:45;;;;;;;4.93;3.55;;;;;;;12.72;62.96;101499.25;5050753;28;20046;-89
2023/04/10 05:10:11;;;;;;;4.22;3.40;;;;;;;12.57;62.65;101462.59;5062444;28;20051;-86
2023/04/10 05:12:37;;;;;;;4.97;3.53;;;;;;;12.52;63.52;101485.03;5056580;28;20039;-87
2023/04/10 05:15:02;;;;;;;4.68;3.72;;;;;;;12.49;65.37;101530.28;5052459;28;20036;-87
2023/04/10 05:17:28;;;;;;;5.15;3.67;;;;;;;11.96;67.13;101458.25;5048549;28;20025;-87
2023/04/10 05:19:54;;;;;;;5.15;3.60;;;;;;;12.06;67.55;101470.13;5049671;28;20032;-87
2023/04/10 05:22:19;;;;;;;5.95;4.10;;;;;;;12.02;68.15;101479.56;5044997;28;20037;-88
2023/04/10 05:24:45;;;;;;;6.28;4.40;;;;;;;12.33;65.87;101473.47;5067384;28;20086;-89
2023/04/10 05:27:11;;;;;;;4.70;3.67;;;;;;;12.65;64.78;101515.44;5053737;28;20033;-88
2023/04/10 05:29:36;;;;;;;4.80;3.67;;;;;;;12.71;64.48;101529.81;5064348;28;20494;-87
2023/04/10 05:32:02;;;;;;;5.55;3.80;;;;;;;12.78;64.15;101546.78;5067211;28;20028;-87
2023/04/10 05:34:27;;;;;;;6.20;4.32;;;;;;;12.78;63.63;101544.16;5064898;28;20062;-87
2023/04/10 05:36:53;;;;;;;5.20;3.92;;;;;;;12.49;63.66;101506.72;5060197;28;20029;-87
2023/04/10 05:39:18;;;;;;;7.63;4.30;;;;;;;12.79;63.10;101535.50;5054829;28;20040;-87
2023/04/10 05:41:44;;;;;;;6.30;4.30;;;;;;;12.75;63.39;101547.50;5048545;28;20029;-87
2023/04/10 05:44:10;;;;;;;7.80;4.72;;;;;;;12.68;63.15;101515.63;5067672;28;20106;-87
2023/04/10 05:46:35;;;;;;;5.70;4.60;;;;;;;12.68;63.02;101528.72;5069258;28;20029;-88
2023/04/10 05:49:01;;;;;;;5.40;4.18;;;;;;;12.57;63.13;101518.56;5069552;28;20032;-85
2023/04/10 05:51:27;;;;;;;6.25;4.47;;;;;;;12.76;62.66;101524.81;5076148;28;20032;-87
2023/04/10 05:53:53;;;;;;;6.15;4.70;;;;;;;12.55;62.56;101500.91;5074068;28;20062;-88
2023/04/10 05:56:19;;;;;;;5.63;4.32;;;;;;;12.88;62.67;101556.97;5064757;28;20032;-88
2023/04/10 05:58:45;;;;;;;6.05;4.55;;;;;;;12.66;62.33;101517.25;5065934;28;20038;-85
2023/04/10 06:01:12;;;;;;;6.13;4.65;;;;;;;12.63;62.27;101505.78;5070826;28;20025;-90
2023/04/10 06:03:38;;;;;;;5.97;4.55;;;;;;;12.49;63.73;101538.16;5065023;28;20060;-88
2023/04/10 06:06:06;;;;;;;6.03;4.80;;;;;;;12.50;65.53;101539.94;5070771;28;20056;-88
2023/04/10 06:08:33;;;;;;;6.10;4.70;;;;;;;12.22;66.94;101535.69;5070686;28;20060;-85
2023/04/10 06:10:59;;;;;;;7.13;4.72;;;;;;;12.40;67.59;101550.69;5069749;28;20024;-86
2023/04/10 06:13:26;;;;;;;7.15;5.30;;;;;;;12.44;65.92;101521.25;5071767;28;20035;-86
2023/04/10 06:15:52;;;;;;;8.57;4.82;;;;;;;12.82;64.03;101552.28;5069700;28;20489;-87
2023/04/10 06:18:17;;;;;;;5.28;4.60;;;;;;;12.52;64.43;101519.97;5070472;28;20090;-87
2023/04/10 06:20:43;;;;;;;6.07;4.50;;;;;;;12.49;64.05;101522.44;5070436;28;20047;-87
2023/04/10 06:23:09;;;;;;;6.53;4.72;;;;;;;12.78;63.54;101555.56;5056845;28;20053;-86
2023/04/10 06:25:34;;;;;;;7.18;4.55;;;;;;;12.68;63.37;101544.44;5058859;28;20107;-87
2023/04/10 06:28:00;;;;;;;6.43;4.65;;;;;;;12.71;63.24;101555.13;5071520;28;20029;-87
2023/04/10 06:30:25;;;;;;;6.35;4.57;;;;;;;12.69;62.86;101533.16;5071448;28;20600;-87
2023/04/10 06:32:51;;;;;;;4.95;4.18;;;;;;;12.78;62.67;101558.19;5071665;28;20032;-88
2023/04/10 06:35:18;;;;;;;7.75;4.70;;;;;;;12.76;62.31;101543.16;5071631;28;20040;-87
2023/04/10 06:37:44;;;;;;;6.22;4.70;;;;;;;12.83;62.63;101548.88;5070373;28;20020;-88
2023/04/10 06:43:39;;;;;;;;;;;;;;;12.97;62.15;101567.09;5049449;28;20565;-88
2023/04/10 06:46:05;;;;;;;5.13;3.97;;;;;;;12.66;62.36;101506.75;5091236;28;20010;-89
2023/04/10 06:48:31;;;;;;;5.13;4.20;;;;;;;12.68;62.25;101511.31;5091558;28;20061;-88
2023/04/10 06:50:59;;;;;;;5.63;4.22;;;;;;;12.59;62.35;101516.00;5083614;28;20034;-88
2023/04/10 06:53:26;;;;;;;4.97;4.18;;;;;;;12.25;63.60;101476.47;5067212;28;20103;-89
2023/04/10 06:55:52;;;;;;;5.07;4.13;;;;;;;12.38;65.60;101539.22;5073258;28;20027;-88
2023/04/10 06:58:17;;;;;;;7.10;4.25;;;;;;;12.00;67.20;101504.72;5073162;28;20523;-87
2023/04/10 07:00:43;;;;;;;7.28;5.45;;;;;;;11.68;67.45;101478.28;5073493;28;20027;-88
2023/04/10 07:03:09;;;;;;;6.97;4.35;;;;;;;12.21;66.24;101520.81;5072751;28;20028;-87
2023/04/10 07:05:34;;;;;;;7.90;4.60;;;;;;;12.34;65.35;101540.78;5073287;28;20032;-87
2023/04/10 07:08:00;;;;;;;6.07;4.63;;;;;;;12.32;64.20;101520.53;5091276;28;20465;-87
2023/04/10 07:10:25;;;;;;;5.68;4.53;;;;;;;12.42;63.53;101504.53;5091269;28;20050;-87
2023/04/10 07:12:52;;;;;;;7.07;4.68;;;;;;;12.51;62.94;101512.03;5072688;28;20089;-88
2023/04/10 07:15:18;;;;;;;5.68;4.70;;;;;;;12.52;62.76;101509.50;5091188;28;20040;-87
2023/04/10 07:17:47;;;;;;;6.38;4.45;;;;;;;12.73;62.87;101549.16;5073128;28;20025;-88
2023/04/10 07:20:12;;;;;;;7.85;4.53;;;;;;;12.58;62.36;101501.09;5092807;28;20032;-88
2023/04/10 07:22:38;;;;;;;5.68;4.20;;;;;;;12.78;62.23;101520.56;5074265;28;20047;-86
2023/04/10 07:25:06;;;;;;;6.15;4.22;;;;;;;12.50;62.88;101518.09;5101326;28;20028;-87
2023/04/10 07:27:32;;;;;;;6.32;4.55;;;;;;;12.55;62.19;101498.28;5077388;28;20839;-88
2023/04/10 07:29:58;;;;;;;6.63;4.43;;;;;;;12.66;62.65;101549.63;5095757;28;20059;-87
2023/04/10 07:32:24;;;;;;;5.90;4.32;;;;;;;12.49;61.88;101487.44;5095440;28;20103;-88
2023/04/10 07:34:51;;;;;;;5.97;4.60;;;;;;;12.46;62.54;101490.81;5077114;28;20032;-88
2023/04/10 07:37:17;;;;;;;7.55;4.95;;;;;;;12.51;62.59;101501.53;5095054;28;20032;-88
2023/04/10 07:39:43;;;;;;;6.30;4.75;;;;;;;12.41;62.31;101484.41;5077164;28;20507;-89
2023/04/10 07:42:10;;;;;;;;;;;;;;;12.74;62.38;101550.97;5077700;28;20106;-88
2023/04/10 07:44:36;;;;;;;8.30;4.80;;;;;;;12.16;64.48;101506.53;5094118;28;20007;-89
2023/04/10 07:47:02;;;;;;;5.40;4.28;;;;;;;12.37;65.79;101550.53;5060268;28;20119;-87
2023/04/10 07:49:27;;;;;;;;;;;;;;;12.51;66.53;101569.66;5077735;28;20024;-89
2023/04/10 07:51:53;;;;;;;7.70;5.05;;;;;;;12.44;66.68;101568.41;5076941;28;19976;-87
2023/04/10 07:54:18;;;;;;;6.10;4.93;;;;;;;12.65;65.22;101567.88;5076997;28;20032;-87
2023/04/10 07:56:45;;;;;;;6.63;4.88;;;;;;;12.57;64.42;101538.59;5094889;28;20034;-87
2023/04/10 07:59:11;;;;;;;8.32;5.20;;;;;;;12.32;64.11;101495.25;5094997;28;20051;-86
2023/04/10 08:04:58;;;;;;;6.55;4.63;;;;;;;12.37;63.42;101499.03;5094207;28;20074;-87
2023/04/10 08:07:24;;;;;;;7.85;4.72;;;;;;;12.76;62.80;101540.56;5076174;28;20132;-85
2023/04/10 08:09:49;;;;;;;6.05;4.50;;;;;;;12.35;62.72;101479.72;5073052;28;20478;-87
2023/04/10 08:12:15;;;;;;;6.75;4.80;;;;;;;12.70;62.45;101516.59;5083702;28;20035;-87
2023/04/10 08:14:40;;;;;;;7.80;4.88;;;;;;;12.49;62.41;101482.22;5075827;28;20070;-87
2023/04/10 08:17:37;;;;;;;5.60;4.03;;;;;;;12.91;62.31;101536.22;5094469;28;20480;-88
2023/04/10 08:20:03;;;;;;;6.20;4.30;;;;;;;12.66;62.29;101507.69;5075921;28;20036;-88
2023/04/10 08:22:29;;;;;;;7.32;4.63;;;;;;;12.84;61.46;101499.97;5075895;28;20032;-87
2023/04/10 08:24:55;;;;;;;7.50;4.30;;;;;;;12.50;62.02;101476.19;5075966;28;20378;-87
2023/04/10 08:27:20;;;;;;;5.82;4.28;;;;;;;12.78;61.99;101512.72;5077335;28;20088;-87
2023/04/10 08:29:46;;;;;;;5.95;4.45;;;;;;;13.02;61.48;101544.69;5077116;28;20061;-88
2023/04/10 08:32:12;;;;;;;5.88;4.30;;;;;;;12.73;62.27;101533.41;5062825;28;20047;-88
2023/04/10 08:34:37;;;;;;;6.32;4.68;;;;;;;12.13;64.94;101477.56;5075866;28;20031;-88
2023/04/10 08:37:08;;;;;;;6.70;4.75;;;;;;;12.20;66.17;101505.91;5075600;28;20405;-88
2023/04/10 08:39:35;;;;;;;5.75;4.35;;;;;;;12.06;66.99;101466.63;5070126;28;20463;-88
2023/04/10 08:42:01;;;;;;;6.47;4.97;;;;;;;12.40;66.43;101504.47;5084872;28;20024;-88
2023/04/10 08:44:26;;;;;;;6.70;4.47;;;;;;;12.71;64.96;101521.06;5075271;28;20140;-88
2023/04/10 08:46:52;;;;;;;6.43;4.90;;;;;;;12.41;64.32;101484.41;5058907;28;20067;-88
2023/04/10 08:49:26;;;;;;;5.63;4.25;;;;;;;12.40;63.55;101466.88;5072447;28;20031;-88
2023/04/10 08:51:55;;;;;;;6.03;4.50;;;;;;;12.66;63.52;101496.28;5058242;28;20124;-88
2023/04/10 08:54:32;;;;;;;5.80;4.53;;;;;;;12.51;63.05;101481.50;5075284;28;20028;-88
2023/04/10 08:57:05;;;;;;;7.70;4.47;;;;;;;12.36;62.89;101442.25;5091960;28;20020;-88
2023/04/10 08:59:47;;;;;;;6.60;4.45;;;;;;;12.77;62.49;101501.34;5074960;28;20086;-88
2023/04/10 09:05:36;;;;;;;5.85;4.43;;;;;;;12.52;62.28;101462.34;5093384;28;20046;-88
2023/04/10 09:15:26;;;;;;;6.13;4.50;;;;;;;12.53;62.03;101434.41;5093451;28;20540;-89
2023/04/10 09:17:59;;;;;;;5.85;4.22;;;;;;;12.75;61.87;101470.63;5092744;28;21311;-88
2023/04/10 09:20:27;;;;;;;8.18;4.40;;;;;;;12.52;62.08;101441.38;5091911;28;20103;-89
2023/04/10 09:22:53;;;;;;;6.75;4.63;;;;;;;12.70;62.81;101490.41;5091859;28;20474;-89
2023/04/10 09:25:32;;;;;;;5.47;4.18;;;;;;;12.19;65.19;101441.28;5075172;28;20034;-89
2023/04/10 09:28:02;;;;;;;6.72;4.25;;;;;;;12.37;66.81;101490.28;5092677;28;20036;-88
2023/04/10 09:30:40;;;;;;;7.22;4.90;;;;;;;12.36;66.95;101463.19;5079693;28;20030;-88
2023/04/10 09:33:22;;;;;;;7.28;4.75;;;;;;;12.67;65.59;101483.28;5077966;28;20524;-89
2023/04/10 09:35:48;;;;;;;6.82;4.43;;;;;;;12.63;64.12;101468.19;5093575;28;20024;-88
2023/04/10 09:38:35;;;;;;;5.57;4.22;;;;;;;12.63;63.87;101474.31;5066257;28;20497;-89
2023/04/10 09:41:12;;;;;;;6.05;4.35;;;;;;;12.65;63.10;101466.56;5092783;28;20031;-88
2023/04/10 09:43:38;;;;;;;7.43;4.53;;;;;;;12.64;62.47;101430.72;5074902;28;20059;-89
2023/04/10 09:46:04;;;;;;;5.22;4.10;;;;;;;12.80;62.21;101445.56;5092428;28;20028;-89
2023/04/10 09:48:31;;;;;;;6.68;4.45;;;;;;;12.53;62.34;101416.09;5053660;28;20035;-88
2023/04/10 09:54:34;;;;;;;12.88;5.68;;;;;;;12.69;62.31;101425.72;5079721;28;20093;-89
2023/04/10 09:57:08;;;;;;;14.23;6.38;;;;;;;12.94;61.96;101449.84;5074547;28;20020;-89
2023/04/10 09:59:39;;;;;;;12.20;6.10;;;;;;;12.71;61.64;101395.25;5074177;28;20102;-88
2023/04/10 10:02:05;;;;;;;12.98;6.55;;;;;;;12.52;61.68;101372.38;5092315;28;20020;-89
2023/04/10 10:04:32;;;;;;;12.10;6.50;;;;;;;12.91;61.25;101426.09;5073887;28;20031;-89
2023/04/10 10:06:57;;;;;;;13.35;6.25;;;;;;;12.89;61.34;101418.94;5067860;28;20098;-88
2023/04/10 10:09:24;;;;;;;13.20;6.28;;;;;;;12.48;61.74;101379.16;5066768;28;20055;-88
2023/04/10 10:11:51;;;;;;;11.00;5.85;;;;;;;12.29;61.85;101352.75;5091978;28;20031;-88
2023/04/10 10:14:17;;;;;;;14.18;6.05;;;;;;;12.35;64.18;101409.00;5073975;28;20106;-88
2023/04/10 10:16:46;;;;;;;11.02;6.70;;;;;;;12.26;65.91;101418.06;5060617;28;20032;-88
2023/04/10 10:19:26;;;;;;;11.13;6.28;;;;;;;12.17;67.17;101418.41;5090840;28;20052;-87
2023/04/10 10:21:52;;;;;;;12.52;6.45;;;;;;;12.46;66.58;101430.56;5074051;28;20127;-86
2023/04/10 10:24:20;;;;;;;13.70;6.55;;;;;;;12.59;64.78;101421.66;5073688;28;20028;-88
2023/04/10 10:26:46;;;;;;;10.73;6.20;;;;;;;12.48;64.06;101394.88;5073675;28;20036;-88
2023/04/10 10:29:14;;;;;;;11.05;6.05;;;;;;;12.73;63.21;101439.06;5073355;28;20050;-88
2023/04/10 10:31:40;;;;;;;9.77;5.53;;;;;;;12.66;63.08;101410.75;5073560;28;20028;-88
2023/04/10 10:34:09;;;;;;;12.35;6.28;;;;;;;12.80;62.45;101424.59;5073555;28;20027;-88
2023/04/10 10:36:36;;;;;;;10.60;6.10;;;;;;;12.86;62.58;101438.03;5091730;28;20059;-88
2023/04/10 10:39:32;;;;;;;8.38;5.32;;;;;;;12.89;62.24;101426.81;5072962;28;20031;-88
2023/04/10 10:42:16;;;;;;;10.68;6.00;;;;;;;12.84;62.45;101435.31;5073508;28;20039;-87
2023/04/10 10:44:43;;;;;;;8.65;5.57;;;;;;;12.84;62.28;101429.19;5078850;28;20146;-88
2023/04/10 10:47:17;;;;;;;9.48;5.63;;;;;;;12.89;62.00;101432.06;5089700;28;20380;-88
2023/04/10 10:49:55;;;;;;;9.02;5.40;;;;;;;12.89;62.13;101418.94;5089842;28;20065;-88
2023/04/10 10:52:56;;;;;;;10.25;6.10;;;;;;;13.10;61.17;101430.63;5073179;28;20081;-88
2023/04/10 10:55:23;;;;;;;8.85;5.40;;;;;;;13.14;60.82;101415.94;5076606;28;20093;-88
2023/04/10 10:57:51;;;;;;;11.52;5.55;;;;;;;12.92;61.69;101411.28;5091488;28;20060;-88
2023/04/10 11:00:18;;;;;;;9.02;5.55;;;;;;;13.05;61.45;101429.47;5090813;28;20500;-88
2023/04/10 11:03:34;;;;;;;9.23;5.68;;;;;;;12.88;62.07;101414.53;5073424;28;20161;-88
2023/04/10 11:06:01;;;;;;;8.68;5.38;;;;;;;12.80;62.75;101411.47;5091147;28;20031;-88
2023/04/10 11:08:42;;;;;;;10.00;5.68;;;;;;;12.86;63.42;101409.19;5072257;28;20089;-88
2023/04/10 11:14:30;;;;;;;8.73;5.57;;;;;;;12.61;64.41;101404.31;5091152;28;20119;-87
2023/04/10 11:17:54;;;;;;;8.43;5.55;;;;;;;12.75;64.98;101413.84;5089756;28;20107;-87
2023/04/10 11:21:06;;;;;;;8.45;5.40;;;;;;;12.79;64.80;101410.59;5028790;28;20079;-88
2023/04/10 11:24:12;;;;;;;8.52;5.75;;;;;;;12.76;65.34;101410.44;4989301;28;20401;-88
2023/04/10 11:26:38;;;;;;;8.40;5.78;;;;;;;12.72;65.55;101410.16;4956530;28;20030;-88
2023/04/10 11:32:25;;;;;;;9.02;5.57;;;;;;;12.63;65.87;101406.19;5008677;28;20412;-87
2023/04/10 11:34:52;;;;;;;7.15;5.32;;;;;;;12.55;65.98;101378.69;4991669;28;20033;-87
2023/04/10 11:37:23;;;;;;;9.65;5.75;;;;;;;12.54;65.92;101369.03;5051613;28;20124;-89
2023/04/10 11:40:02;;;;;;;8.32;5.63;;;;;;;12.24;65.99;101321.06;5078051;28;20102;-89
2023/04/10 11:42:28;;;;;;;10.15;5.82;;;;;;;12.72;65.79;101391.81;5089588;28;20024;-86
2023/04/10 11:44:56;;;;;;;9.50;5.95;;;;;;;12.37;66.25;101327.91;5090638;28;20112;-89
2023/04/10 11:47:21;;;;;;;8.73;5.72;;;;;;;12.73;66.24;101384.03;5072388;28;20214;-88
2023/04/10 11:49:54;;;;;;;10.50;6.00;;;;;;;12.29;66.48;101335.31;5090713;28;20531;-88
2023/04/10 11:52:26;;;;;;;11.90;5.90;;;;;;;12.48;66.58;101363.44;5073163;28;20028;-88
2023/04/10 11:54:51;;;;;;;10.90;6.38;;;;;;;12.47;66.59;101359.03;5090927;28;20030;-88
2023/04/10 11:57:17;;;;;;;12.90;5.88;;;;;;;12.53;66.73;101367.22;5056111;28;20123;-88